»·PEaware :: CAX352 KLAS-KSAN

CAX352 :: KLAS-KSAN

FLIGHT INFORMATION

Flight Status: Arrived
Operator:
California Airlines (website)
More flights by this operator :: More flights under this callsign
Pilot: Dan K. (1691)
Aircraft: BOEING 737-800
(B738)
More flights by this aircraft type
Origin: KLAS McCarran Intl
United States
Destination: KSAN San Diego Intl-Lindbergh
United States
More flights between these airports :: More routes between these airports
Route: +BOACH8 LVELL LUCKI1
File this flight plan on PilotEdge
Remarks:
Altitude:
(Current/Filed)
26,000ft
Speed:
(Current/Filed)
463kts
Departed: 08-Oct-17 02:40 PM
Arrived: 08-Oct-17 03:24 PM
Distance/Time
Traveled:
225nm/0:44
Distance/Time
To Go:
Arrived

Flight Plot

Page will automatically refresh every two minutes.

Flight plan parsing failed; only flown route is shown


Map Options




Map Legend


Flown Route
Filed Route
Departure Airport
Arrival Airport
Navaid (VOR, NDB)
Fix

Horizontal Profiles

Position Reports

Time Latitude Longitude Heading Altitude Ground
Speed
08-Oct-17 13:58 36.086508 -115.152579 272 2148ft 0kts
08-Oct-17 13:59 36.086508 -115.152579 272 2148ft 0kts
08-Oct-17 14:00 36.086508 -115.152579 272 2148ft 0kts
08-Oct-17 14:01 36.086508 -115.152579 272 2148ft 0kts
08-Oct-17 14:02 36.086508 -115.152579 272 2148ft 0kts
08-Oct-17 14:03 36.086508 -115.152579 272 2148ft 0kts
08-Oct-17 14:04 36.086508 -115.152579 272 2148ft 0kts
08-Oct-17 14:05 36.086508 -115.152579 272 2148ft 0kts
08-Oct-17 14:06 36.086508 -115.152579 272 2148ft 0kts
08-Oct-17 14:07 36.086508 -115.152579 272 2148ft 0kts
08-Oct-17 14:08 36.086508 -115.152579 272 2148ft 0kts
08-Oct-17 14:09 36.086508 -115.152579 272 2148ft 0kts
08-Oct-17 14:10 36.086508 -115.152579 272 2148ft 0kts
08-Oct-17 14:11 36.086508 -115.152579 272 2148ft 0kts
08-Oct-17 14:12 36.086508 -115.152579 272 2148ft 0kts
08-Oct-17 14:13 36.086508 -115.152579 272 2148ft 0kts
08-Oct-17 14:14 36.086508 -115.152579 272 2148ft 0kts
08-Oct-17 14:15 36.086508 -115.152579 272 2148ft 0kts
08-Oct-17 14:16 36.086508 -115.152579 272 2148ft 0kts
08-Oct-17 14:17 36.086508 -115.152579 272 2148ft 0kts
08-Oct-17 14:18 36.086508 -115.152579 272 2148ft 0kts
08-Oct-17 14:19 36.086508 -115.152579 272 2148ft 0kts
08-Oct-17 14:20 36.086508 -115.152579 272 2148ft 0kts
08-Oct-17 14:21 36.086508 -115.152579 272 2148ft 0kts
08-Oct-17 14:22 36.086508 -115.152579 272 2148ft 0kts
08-Oct-17 14:23 36.086508 -115.152579 272 2148ft 0kts
08-Oct-17 14:24 36.086508 -115.152578 272 2148ft 0kts
08-Oct-17 14:25 36.086494 -115.152056 253 2148ft 2kts
08-Oct-17 14:26 36.086333 -115.151709 359 2148ft 1kts
08-Oct-17 14:27 36.086861 -115.151813 351 2148ft 0kts
08-Oct-17 14:28 36.086861 -115.151813 351 2148ft 0kts
08-Oct-17 14:29 36.086861 -115.151813 351 2148ft 0kts
08-Oct-17 14:30 36.087365 -115.152092 314 2148ft 4kts
08-Oct-17 14:31 36.087845 -115.154010 270 2148ft 8kts
08-Oct-17 14:32 36.085564 -115.156039 207 2148ft 11kts
08-Oct-17 14:33 36.082933 -115.155725 155 2148ft 14kts
08-Oct-17 14:34 36.079157 -115.153566 155 2148ft 9kts
08-Oct-17 14:35 36.077971 -115.150215 94 2148ft 28kts
08-Oct-17 14:36 36.077543 -115.140396 89 2148ft 26kts
08-Oct-17 14:37 36.077540 -115.131066 90 2148ft 27kts
08-Oct-17 14:38 36.077550 -115.123912 90 2148ft 11kts
08-Oct-17 14:39 36.077538 -115.121684 102 2148ft 4kts
08-Oct-17 14:40 36.077425 -115.121420 128 2148ft 0kts
08-Oct-17 14:41 36.076759 -115.121277 183 2149ft 7kts
08-Oct-17 14:42 36.076452 -115.121836 272 2148ft 0kts
08-Oct-17 14:43 36.076454 -115.121896 272 2148ft 0kts
08-Oct-17 14:44 36.076415 -115.148353 268 2188ft 180kts
08-Oct-17 14:45 36.077300 -115.212929 266 3911ft 226kts
08-Oct-17 14:46 36.035634 -115.274882 197 5149ft 273kts
08-Oct-17 14:47 35.964061 -115.303328 187 6176ft 274kts
08-Oct-17 14:48 35.888437 -115.311675 186 9081ft 279kts
08-Oct-17 14:49 35.807858 -115.309897 175 10964ft 316kts
08-Oct-17 14:50 35.718384 -115.299311 179 13151ft 339kts
08-Oct-17 14:51 35.620209 -115.296666 185 15022ft 365kts
08-Oct-17 14:52 35.517521 -115.301013 185 17828ft 377kts
08-Oct-17 14:53 35.410323 -115.305297 185 18773ft 408kts
08-Oct-17 14:54 35.292076 -115.309926 185 20733ft 437kts
08-Oct-17 14:56 35.171330 -115.314652 185 23170ft 447kts
08-Oct-17 14:57 35.044149 -115.319644 185 25073ft 466kts
08-Oct-17 14:58 34.913662 -115.324800 185 25681ft 484kts
08-Oct-17 14:59 34.790105 -115.329685 185 25661ft 492kts
08-Oct-17 15:00 34.670412 -115.377949 205 25669ft 483kts
08-Oct-17 15:01 34.544668 -115.434010 203 25667ft 484kts
08-Oct-17 15:02 34.418135 -115.489288 203 25670ft 482kts
08-Oct-17 15:03 34.294985 -115.549284 217 25764ft 475kts
08-Oct-17 15:04 34.181552 -115.631086 204 25760ft 483kts
08-Oct-17 15:05 34.095393 -115.669440 204 25781ft 483kts
08-Oct-17 15:06 33.970809 -115.727794 204 25783ft 483kts
08-Oct-17 15:06 33.873289 -115.774605 205 25778ft 482kts
08-Oct-17 15:08 33.729102 -115.844500 204 25390ft 481kts
08-Oct-17 15:08 33.627175 -115.892048 205 24551ft 473kts
08-Oct-17 15:10 33.492591 -115.967738 226 23388ft 452kts
08-Oct-17 15:10 33.438490 -116.070862 242 22446ft 439kts
08-Oct-17 15:11 33.371943 -116.190519 239 20429ft 426kts
08-Oct-17 15:12 33.289036 -116.284429 205 18416ft 431kts
08-Oct-17 15:13 33.187334 -116.351357 217 16428ft 414kts
08-Oct-17 15:15 33.075822 -116.435240 215 14093ft 401kts
08-Oct-17 15:15 32.999372 -116.491846 215 12399ft 375kts
08-Oct-17 15:16 32.916946 -116.552954 213 10616ft 311kts
08-Oct-17 15:17 32.854128 -116.599498 213 9531ft 260kts
08-Oct-17 15:18 32.800886 -116.650257 219 8514ft 256kts
08-Oct-17 15:19 32.758043 -116.710584 240 7620ft 251kts
08-Oct-17 15:20 32.724704 -116.782154 242 6631ft 246kts
08-Oct-17 15:21 32.697656 -116.854144 246 5573ft 234kts
08-Oct-17 15:22 32.675327 -116.924926 253 4544ft 227kts
08-Oct-17 15:23 32.685914 -116.993564 284 3673ft 208kts
08-Oct-17 15:24 32.701100 -117.052266 285 2817ft 174kts
08-Oct-17 15:25 32.712259 -117.102233 281 1521ft 155kts
08-Oct-17 15:26 32.723162 -117.145581 280 771ft 150kts
08-Oct-17 15:27 32.733771 -117.191062 284 25ft 117kts
08-Oct-17 15:28 32.736258 -117.201896 224 25ft 7kts
08-Oct-17 15:29 32.735144 -117.200517 106 25ft 11kts
08-Oct-17 15:30 32.734161 -117.196983 155 25ft 8kts
08-Oct-17 15:31 32.732793 -117.197461 261 24ft 0kts
08-Oct-17 15:32 32.732909 -117.197719 308 25ft 1kts
08-Oct-17 15:33 32.732943 -117.197770 308 25ft 0kts

Navigation Log

Ident Type
Flight plan parsing failed, navigation log unavailable